createdAt,value
2019-06-04T00:03:21.550Z,1007.63
2019-06-04T00:08:17.462Z,1007.61
2019-06-04T00:13:14.405Z,1007.71
2019-06-04T00:18:10.377Z,1007.60
2019-06-04T00:23:07.391Z,1007.58
2019-06-04T00:28:03.810Z,1007.64
2019-06-04T00:33:00.047Z,1007.61
2019-06-04T00:37:56.337Z,1007.58
2019-06-04T00:42:52.254Z,1007.62
2019-06-04T00:47:49.204Z,1007.64
2019-06-04T00:52:44.815Z,1007.65
2019-06-04T00:57:41.060Z,1007.55
2019-06-04T01:02:37.979Z,1007.56
2019-06-04T01:07:33.705Z,1007.54
2019-06-04T01:12:29.611Z,1007.55
2019-06-04T01:17:25.365Z,1007.50
2019-06-04T01:22:21.550Z,1007.48
2019-06-04T01:27:17.529Z,1007.41
2019-06-04T01:32:21.002Z,1007.37
2019-06-04T01:37:12.204Z,1007.24
2019-06-04T01:42:08.954Z,1007.34
2019-06-04T01:47:05.670Z,1007.34
2019-06-04T01:52:02.180Z,1007.37
2019-06-04T01:56:58.301Z,1007.40
2019-06-04T02:01:54.325Z,1007.31
2019-06-04T02:06:50.264Z,1007.38
2019-06-04T02:11:46.995Z,1007.39
2019-06-04T02:16:42.716Z,1007.39
2019-06-04T02:21:38.798Z,1007.40
2019-06-04T02:26:35.000Z,1007.32
2019-06-04T02:31:30.783Z,1007.27
2019-06-04T02:36:26.520Z,1007.24
2019-06-04T02:41:22.790Z,1007.20
2019-06-04T02:46:19.879Z,1007.21
2019-06-04T02:51:15.663Z,1007.08
2019-06-04T02:56:11.726Z,1007.13
2019-06-04T03:01:09.445Z,1007.13
2019-06-04T03:06:06.631Z,1007.19
2019-06-04T03:11:03.370Z,1007.17
2019-06-04T03:15:59.201Z,1007.08
2019-06-04T03:20:55.148Z,1007.04
2019-06-04T03:25:51.212Z,1007.00
2019-06-04T03:30:47.059Z,1006.97
2019-06-04T03:35:43.591Z,1007.03
2019-06-04T03:40:39.756Z,1007.01
2019-06-04T03:45:35.887Z,1007.02
2019-06-04T03:50:31.956Z,1007.00
2019-06-04T03:55:27.861Z,1006.99
2019-06-04T04:00:29.161Z,1007.06
2019-06-04T04:05:24.846Z,1006.98
2019-06-04T04:10:22.653Z,1007.01
2019-06-04T04:15:18.690Z,1007.03
2019-06-04T04:20:14.819Z,1007.10
2019-06-04T04:25:10.973Z,1007.20
2019-06-04T04:30:07.528Z,1007.24
2019-06-04T04:35:04.707Z,1007.19
2019-06-04T04:40:01.481Z,1007.10
2019-06-04T04:44:59.156Z,1007.10
2019-06-04T04:49:55.110Z,1007.05
2019-06-04T04:54:50.984Z,1007.01
2019-06-04T04:59:46.983Z,1007.04
2019-06-04T05:04:49.173Z,1007.04
2019-06-04T05:09:42.488Z,1007.02
2019-06-04T05:14:39.743Z,1007.04
2019-06-04T05:19:34.988Z,1006.97
2019-06-04T05:24:32.015Z,1006.97
2019-06-04T05:29:27.713Z,1006.92
2019-06-04T05:34:24.562Z,1006.98
2019-06-04T05:39:22.328Z,1006.86
2019-06-04T05:44:19.915Z,1006.87
2019-06-04T05:49:16.790Z,1006.77
2019-06-04T05:54:13.298Z,1006.95
2019-06-04T05:59:08.959Z,1006.97
2019-06-04T06:04:04.753Z,1007.04
2019-06-04T06:09:01.283Z,1006.89
2019-06-04T06:13:57.616Z,1007.01
2019-06-04T06:18:53.833Z,1006.89
2019-06-04T06:23:50.065Z,1007.01
2019-06-04T06:28:46.531Z,1007.07
2019-06-04T06:33:42.890Z,1007.03
2019-06-04T06:38:53.873Z,1006.95
2019-06-04T06:43:39.903Z,1006.97
2019-06-04T06:48:36.919Z,1006.92
2019-06-04T06:53:34.329Z,1006.92
2019-06-04T06:58:33.313Z,1007.02
2019-06-04T07:03:30.938Z,1006.90
2019-06-04T07:08:28.256Z,1006.86
2019-06-04T07:13:23.399Z,1006.83
2019-06-04T07:18:19.239Z,1006.76
2019-06-04T07:23:15.263Z,1006.77
2019-06-04T07:28:11.911Z,1006.67
2019-06-04T07:33:08.940Z,1006.65
2019-06-04T07:38:04.976Z,1006.70
2019-06-04T07:43:01.245Z,1006.69
2019-06-04T07:47:57.555Z,1006.68
2019-06-04T07:52:53.535Z,1006.60
2019-06-04T07:57:50.714Z,1006.75
2019-06-04T08:02:49.421Z,1006.76
2019-06-04T08:07:45.942Z,1006.70
2019-06-04T08:12:43.548Z,1006.79
2019-06-04T08:17:39.782Z,1006.77
2019-06-04T08:22:35.536Z,1006.66
2019-06-04T08:27:32.323Z,1006.59
2019-06-04T08:32:33.775Z,1006.54
2019-06-04T08:37:31.378Z,1006.51
2019-06-04T08:42:29.142Z,1006.52
2019-06-04T08:47:26.339Z,1006.55
2019-06-04T08:52:23.303Z,1006.47
2019-06-04T08:57:20.474Z,1006.37
2019-06-04T09:02:16.868Z,1006.39
2019-06-04T09:07:25.919Z,1006.27
2019-06-04T09:12:12.769Z,1006.24
2019-06-04T09:17:09.111Z,1006.18
2019-06-04T09:22:03.936Z,1006.31
2019-06-04T09:27:06.495Z,1006.30
2019-06-04T09:32:01.114Z,1006.28
2019-06-04T09:36:57.676Z,1006.12
2019-06-04T09:41:54.389Z,1006.10
2019-06-04T09:46:52.839Z,1006.04
2019-06-04T09:51:49.193Z,1006.07
2019-06-04T09:56:46.991Z,1006.11
2019-06-04T10:01:47.343Z,1006.06
2019-06-04T10:06:45.645Z,1005.90
2019-06-04T10:11:42.528Z,1005.81
2019-06-04T10:16:38.316Z,1005.58
2019-06-04T10:21:36.762Z,1005.52
2019-06-04T10:26:33.682Z,1005.47
2019-06-04T10:31:29.623Z,1005.31
2019-06-04T10:36:25.929Z,1005.41
2019-06-04T10:41:22.548Z,1005.20
2019-06-04T10:46:19.236Z,1005.26
2019-06-04T10:51:16.687Z,1004.97
2019-06-04T10:56:13.828Z,1004.96
2019-06-04T11:01:11.102Z,1004.87
2019-06-04T11:06:07.312Z,1004.89
2019-06-04T11:11:03.771Z,1004.75
2019-06-04T11:15:59.513Z,1004.86
2019-06-04T11:25:59.085Z,1004.73
2019-06-04T11:30:56.203Z,1004.65
2019-06-04T11:35:56.346Z,1004.60
2019-06-04T11:40:54.060Z,1004.49
2019-06-04T11:45:55.010Z,1004.29
2019-06-04T11:50:51.556Z,1004.20
2019-06-04T11:55:49.125Z,1004.32
2019-06-04T12:00:46.796Z,1004.16
2019-06-04T12:05:44.496Z,1004.13
2019-06-04T12:10:39.900Z,1003.99
2019-06-04T12:15:36.078Z,1003.84
2019-06-04T12:20:31.778Z,1003.74
2019-06-04T12:25:28.796Z,1003.76
2019-06-04T12:30:24.150Z,1003.50
2019-06-04T12:35:19.547Z,1003.42
2019-06-04T12:40:14.679Z,1003.26
2019-06-04T12:45:10.573Z,1003.21
2019-06-04T12:50:07.279Z,1003.21
2019-06-04T12:55:03.652Z,1003.02
2019-06-04T13:00:00.050Z,1002.92
2019-06-04T13:04:55.173Z,1002.81
2019-06-04T13:10:08.888Z,1002.85
2019-06-04T13:14:50.372Z,1002.81
2019-06-04T13:19:46.099Z,1002.78
2019-06-04T13:24:42.387Z,1002.59
2019-06-04T13:29:45.039Z,1002.69
2019-06-04T13:34:37.741Z,1002.61
2019-06-04T13:39:33.646Z,1002.41
2019-06-04T13:44:30.112Z,1002.32
2019-06-04T13:49:34.041Z,1002.34
2019-06-04T13:54:26.509Z,1002.23
2019-06-04T13:59:22.471Z,1002.18
2019-06-04T14:04:17.974Z,1002.03
2019-06-04T14:09:16.740Z,1002.01
2019-06-04T14:14:26.949Z,1001.96
2019-06-04T14:19:11.524Z,1001.92
2019-06-04T14:24:08.640Z,1001.83
2019-06-04T14:29:05.419Z,1001.69
2019-06-04T14:34:01.231Z,1001.72
2019-06-04T14:38:57.480Z,1001.57
2019-06-04T14:43:53.393Z,1001.50
2019-06-04T14:48:49.156Z,1001.42
2019-06-04T14:53:45.297Z,1001.19
2019-06-04T14:58:41.491Z,1001.23
2019-06-04T15:03:37.413Z,1001.12
2019-06-04T15:08:33.379Z,1000.99
2019-06-04T15:13:29.297Z,1000.91
2019-06-04T15:18:25.440Z,1000.78
2019-06-04T15:23:21.622Z,1000.73
2019-06-04T15:28:17.704Z,1000.67
2019-06-04T15:33:14.191Z,1000.59
2019-06-04T15:38:12.263Z,1000.47
2019-06-04T15:43:07.857Z,1000.39
2019-06-04T15:48:03.939Z,1000.30
2019-06-04T15:52:59.778Z,1000.25
2019-06-04T15:57:57.081Z,1000.04
2019-06-04T16:02:54.135Z,1000.05
2019-06-04T16:07:50.677Z,999.93
2019-06-04T16:12:46.576Z,999.91
2019-06-04T16:17:42.832Z,999.78
2019-06-04T16:22:38.887Z,999.77
2019-06-04T16:27:34.758Z,999.62
2019-06-04T16:32:30.894Z,999.49
2019-06-04T16:37:28.541Z,999.44
2019-06-04T16:42:34.402Z,999.24
2019-06-04T16:47:25.508Z,999.22
2019-06-04T16:52:21.236Z,999.08
2019-06-04T16:57:17.389Z,999.03
2019-06-04T17:02:13.386Z,998.91
2019-06-04T17:07:09.507Z,998.71
2019-06-04T17:12:07.232Z,998.60
2019-06-04T17:17:03.554Z,998.38
2019-06-04T17:22:00.763Z,998.25
2019-06-04T17:26:56.655Z,998.11
2019-06-04T17:31:54.436Z,997.87
2019-06-04T17:36:50.177Z,997.76
2019-06-04T17:41:47.240Z,997.82
2019-06-04T17:46:43.275Z,997.79
2019-06-04T17:51:39.136Z,997.81
2019-06-04T17:56:35.497Z,997.84
2019-06-04T18:01:33.315Z,997.79
2019-06-04T18:06:29.421Z,997.72
2019-06-04T18:11:26.906Z,997.69
2019-06-04T18:16:22.489Z,997.64
2019-06-04T18:21:18.411Z,997.59
2019-06-04T18:26:14.388Z,997.59
2019-06-04T18:31:10.446Z,997.56
2019-06-04T18:36:06.504Z,997.64
2019-06-04T18:41:03.571Z,997.55
2019-06-04T18:45:59.218Z,997.53
2019-06-04T18:50:59.814Z,997.48
2019-06-04T18:55:55.041Z,997.45
2019-06-04T19:00:51.492Z,997.40
2019-06-04T19:05:47.664Z,997.43
2019-06-04T19:10:43.612Z,997.39
2019-06-04T19:15:41.776Z,997.36
2019-06-04T19:20:38.646Z,997.36
2019-06-04T19:25:35.335Z,997.34
2019-06-04T19:30:31.079Z,997.33
2019-06-04T19:35:27.946Z,997.42
2019-06-04T19:40:23.693Z,997.30
2019-06-04T19:45:19.574Z,997.29
2019-06-04T19:50:18.625Z,997.32
2019-06-04T19:55:13.699Z,997.26
2019-06-04T20:00:09.772Z,997.18
2019-06-04T20:05:06.942Z,997.26
2019-06-04T20:10:03.758Z,997.16
2019-06-04T20:14:59.507Z,997.10
2019-06-04T20:19:55.510Z,997.00
2019-06-04T20:24:51.609Z,996.95
2019-06-04T20:29:48.662Z,996.91
2019-06-04T20:34:45.102Z,996.71
2019-06-04T20:39:42.033Z,996.76
2019-06-04T20:44:41.877Z,996.63
2019-06-04T20:49:40.074Z,996.76
2019-06-04T20:54:40.246Z,996.79
2019-06-04T20:59:37.340Z,996.75
2019-06-04T21:04:34.621Z,996.78
2019-06-04T21:09:30.287Z,996.71
2019-06-04T21:14:27.129Z,996.76
2019-06-04T21:19:22.879Z,996.85
2019-06-04T21:24:19.908Z,996.88
2019-06-04T21:29:15.538Z,996.98
2019-06-04T21:34:11.296Z,997.04
2019-06-04T21:39:07.143Z,997.26
2019-06-04T21:44:04.021Z,997.27
2019-06-04T21:49:00.576Z,997.40
2019-06-04T21:53:56.322Z,997.58
2019-06-04T21:58:54.741Z,997.69
2019-06-04T22:03:49.913Z,997.92
2019-06-04T22:08:45.946Z,998.79
2019-06-04T22:13:42.117Z,998.96
2019-06-04T22:18:39.412Z,998.97
2019-06-04T22:23:35.283Z,998.99
2019-06-04T22:28:31.306Z,999.08
2019-06-04T22:33:28.308Z,999.20
2019-06-04T22:38:24.367Z,999.31
2019-06-04T22:43:21.999Z,999.82
2019-06-04T22:48:17.702Z,999.89
2019-06-04T22:53:13.672Z,999.96
2019-06-04T22:58:09.664Z,1000.08
2019-06-04T23:03:05.559Z,1000.21
2019-06-04T23:08:02.231Z,999.56
2019-06-04T23:12:58.831Z,999.46
2019-06-04T23:17:55.430Z,999.59
2019-06-04T23:22:52.109Z,999.54
2019-06-04T23:27:47.521Z,999.43
2019-06-04T23:32:43.710Z,998.74
2019-06-04T23:37:39.530Z,998.44
2019-06-04T23:42:35.460Z,998.91
2019-06-04T23:47:31.322Z,999.63
2019-06-04T23:52:28.745Z,999.65
2019-06-04T23:57:25.718Z,999.89
